sensor_id;sensor_type;location;lat;lon;timestamp;temperature;humidity
39677;DHT22;27789;50.840;4.386;2023-04-25T00:01:44;10.00;99.90
39677;DHT22;27789;50.840;4.386;2023-04-25T00:04:10;9.90;99.90
39677;DHT22;27789;50.840;4.386;2023-04-25T00:06:36;9.90;99.90
39677;DHT22;27789;50.840;4.386;2023-04-25T00:09:05;9.90;99.90
39677;DHT22;27789;50.840;4.386;2023-04-25T00:11:35;9.90;99.90
39677;DHT22;27789;50.840;4.386;2023-04-25T00:14:00;9.90;99.90
39677;DHT22;27789;50.840;4.386;2023-04-25T00:16:27;9.90;99.90
39677;DHT22;27789;50.840;4.386;2023-04-25T00:18:54;9.90;99.90
39677;DHT22;27789;50.840;4.386;2023-04-25T00:21:20;10.00;99.90
39677;DHT22;27789;50.840;4.386;2023-04-25T00:23:46;9.90;99.90
39677;DHT22;27789;50.840;4.386;2023-04-25T00:26:11;9.90;99.90
39677;DHT22;27789;50.840;4.386;2023-04-25T00:28:37;9.90;99.90
39677;DHT22;27789;50.840;4.386;2023-04-25T00:31:03;9.90;99.90
39677;DHT22;27789;50.840;4.386;2023-04-25T00:33:28;9.90;99.90
39677;DHT22;27789;50.840;4.386;2023-04-25T00:35:54;9.90;99.90
39677;DHT22;27789;50.840;4.386;2023-04-25T00:38:19;9.80;99.90
39677;DHT22;27789;50.840;4.386;2023-04-25T00:40:45;9.80;99.90
39677;DHT22;27789;50.840;4.386;2023-04-25T00:43:10;9.80;99.90
39677;DHT22;27789;50.840;4.386;2023-04-25T00:45:36;9.80;99.90
39677;DHT22;27789;50.840;4.386;2023-04-25T00:48:03;9.80;99.90
39677;DHT22;27789;50.840;4.386;2023-04-25T00:50:29;9.70;99.90
39677;DHT22;27789;50.840;4.386;2023-04-25T00:52:55;9.70;99.90
39677;DHT22;27789;50.840;4.386;2023-04-25T00:55:21;9.70;99.90
39677;DHT22;27789;50.840;4.386;2023-04-25T00:57:46;9.70;99.90
39677;DHT22;27789;50.840;4.386;2023-04-25T01:00:12;9.70;99.90
39677;DHT22;27789;50.840;4.386;2023-04-25T01:02:39;9.70;99.90
39677;DHT22;27789;50.840;4.386;2023-04-25T01:05:05;9.60;99.90
39677;DHT22;27789;50.840;4.386;2023-04-25T01:07:31;9.60;99.90
39677;DHT22;27789;50.840;4.386;2023-04-25T01:09:56;9.60;99.90
39677;DHT22;27789;50.840;4.386;2023-04-25T01:12:22;9.60;99.90
39677;DHT22;27789;50.840;4.386;2023-04-25T01:14:48;9.70;99.90
39677;DHT22;27789;50.840;4.386;2023-04-25T01:17:13;9.60;99.90
39677;DHT22;27789;50.840;4.386;2023-04-25T01:19:40;9.50;99.90
39677;DHT22;27789;50.840;4.386;2023-04-25T01:22:05;9.60;99.90
39677;DHT22;27789;50.840;4.386;2023-04-25T01:24:32;9.70;99.90
39677;DHT22;27789;50.840;4.386;2023-04-25T01:26:58;9.70;99.90
39677;DHT22;27789;50.840;4.386;2023-04-25T01:29:24;9.70;99.90
39677;DHT22;27789;50.840;4.386;2023-04-25T01:31:50;9.70;99.90
39677;DHT22;27789;50.840;4.386;2023-04-25T01:34:16;9.70;99.90
39677;DHT22;27789;50.840;4.386;2023-04-25T01:36:41;9.70;99.90
39677;DHT22;27789;50.840;4.386;2023-04-25T01:39:07;9.60;99.90
39677;DHT22;27789;50.840;4.386;2023-04-25T01:41:33;9.60;99.90
39677;DHT22;27789;50.840;4.386;2023-04-25T01:44:00;9.50;99.90
39677;DHT22;27789;50.840;4.386;2023-04-25T01:46:26;9.50;99.90
39677;DHT22;27789;50.840;4.386;2023-04-25T01:48:51;9.50;99.90
39677;DHT22;27789;50.840;4.386;2023-04-25T01:51:17;9.50;99.90
39677;DHT22;27789;50.840;4.386;2023-04-25T01:53:42;9.50;99.90
39677;DHT22;27789;50.840;4.386;2023-04-25T01:56:08;9.50;99.90
39677;DHT22;27789;50.840;4.386;2023-04-25T01:58:34;9.50;99.90
39677;DHT22;27789;50.840;4.386;2023-04-25T02:00:59;9.50;99.90
39677;DHT22;27789;50.840;4.386;2023-04-25T02:03:25;9.50;99.90
39677;DHT22;27789;50.840;4.386;2023-04-25T02:05:50;9.50;99.90
39677;DHT22;27789;50.840;4.386;2023-04-25T02:08:16;9.50;99.90
39677;DHT22;27789;50.840;4.386;2023-04-25T02:10:42;9.40;99.90
39677;DHT22;27789;50.840;4.386;2023-04-25T02:13:07;9.40;99.90
39677;DHT22;27789;50.840;4.386;2023-04-25T02:15:33;9.40;99.90
39677;DHT22;27789;50.840;4.386;2023-04-25T02:17:58;9.40;99.90
39677;DHT22;27789;50.840;4.386;2023-04-25T02:20:25;9.30;99.90
39677;DHT22;27789;50.840;4.386;2023-04-25T02:22:51;9.30;99.90
39677;DHT22;27789;50.840;4.386;2023-04-25T02:25:17;9.20;99.90
39677;DHT22;27789;50.840;4.386;2023-04-25T02:27:42;9.20;99.90
39677;DHT22;27789;50.840;4.386;2023-04-25T02:30:08;9.20;99.90
39677;DHT22;27789;50.840;4.386;2023-04-25T02:32:34;9.20;99.90
39677;DHT22;27789;50.840;4.386;2023-04-25T02:35:02;9.10;99.90
39677;DHT22;27789;50.840;4.386;2023-04-25T02:37:34;9.20;99.90
39677;DHT22;27789;50.840;4.386;2023-04-25T02:40:00;9.10;99.90
39677;DHT22;27789;50.840;4.386;2023-04-25T02:42:26;9.20;99.90
39677;DHT22;27789;50.840;4.386;2023-04-25T02:44:52;9.10;99.90
39677;DHT22;27789;50.840;4.386;2023-04-25T02:47:17;9.10;99.90
39677;DHT22;27789;50.840;4.386;2023-04-25T02:49:43;9.10;99.90
39677;DHT22;27789;50.840;4.386;2023-04-25T02:52:08;9.10;99.90
39677;DHT22;27789;50.840;4.386;2023-04-25T02:54:34;9.20;99.90
39677;DHT22;27789;50.840;4.386;2023-04-25T02:56:59;9.20;99.90
39677;DHT22;27789;50.840;4.386;2023-04-25T02:59:26;9.10;99.90
39677;DHT22;27789;50.840;4.386;2023-04-25T03:01:51;9.20;99.90
39677;DHT22;27789;50.840;4.386;2023-04-25T03:04:17;9.20;99.90
39677;DHT22;27789;50.840;4.386;2023-04-25T03:06:44;9.20;99.90
39677;DHT22;27789;50.840;4.386;2023-04-25T03:09:09;9.20;99.90
39677;DHT22;27789;50.840;4.386;2023-04-25T03:11:36;9.20;99.90
39677;DHT22;27789;50.840;4.386;2023-04-25T03:14:02;9.20;99.90
39677;DHT22;27789;50.840;4.386;2023-04-25T03:16:27;9.20;99.90
39677;DHT22;27789;50.840;4.386;2023-04-25T03:18:53;9.20;99.90
39677;DHT22;27789;50.840;4.386;2023-04-25T03:21:18;9.20;99.90
39677;DHT22;27789;50.840;4.386;2023-04-25T03:23:44;9.10;99.90
39677;DHT22;27789;50.840;4.386;2023-04-25T03:26:09;9.10;99.90
39677;DHT22;27789;50.840;4.386;2023-04-25T03:28:35;9.00;99.90
39677;DHT22;27789;50.840;4.386;2023-04-25T03:31:00;9.10;99.90
39677;DHT22;27789;50.840;4.386;2023-04-25T03:33:26;9.00;99.90
39677;DHT22;27789;50.840;4.386;2023-04-25T03:35:52;9.00;99.90
39677;DHT22;27789;50.840;4.386;2023-04-25T03:38:18;8.90;99.90
39677;DHT22;27789;50.840;4.386;2023-04-25T03:40:44;8.90;99.90
39677;DHT22;27789;50.840;4.386;2023-04-25T03:43:09;8.90;99.90
39677;DHT22;27789;50.840;4.386;2023-04-25T03:45:35;8.90;99.90
39677;DHT22;27789;50.840;4.386;2023-04-25T03:48:00;8.90;99.90
39677;DHT22;27789;50.840;4.386;2023-04-25T03:50:26;8.90;99.90
39677;DHT22;27789;50.840;4.386;2023-04-25T03:52:51;8.90;99.90
39677;DHT22;27789;50.840;4.386;2023-04-25T03:55:17;8.90;99.90
39677;DHT22;27789;50.840;4.386;2023-04-25T03:57:43;8.80;99.90
39677;DHT22;27789;50.840;4.386;2023-04-25T04:00:09;8.80;99.90
39677;DHT22;27789;50.840;4.386;2023-04-25T04:02:35;8.80;99.90
39677;DHT22;27789;50.840;4.386;2023-04-25T04:05:01;8.80;99.90
39677;DHT22;27789;50.840;4.386;2023-04-25T04:07:27;8.80;99.90
39677;DHT22;27789;50.840;4.386;2023-04-25T04:09:53;8.80;99.90
39677;DHT22;27789;50.840;4.386;2023-04-25T04:12:18;8.80;99.90
39677;DHT22;27789;50.840;4.386;2023-04-25T04:14:44;8.80;99.90
39677;DHT22;27789;50.840;4.386;2023-04-25T04:17:09;8.90;99.90
39677;DHT22;27789;50.840;4.386;2023-04-25T04:19:35;8.90;99.90
39677;DHT22;27789;50.840;4.386;2023-04-25T04:22:01;8.90;99.90
39677;DHT22;27789;50.840;4.386;2023-04-25T04:24:26;8.90;99.90
39677;DHT22;27789;50.840;4.386;2023-04-25T04:26:52;8.90;99.90
39677;DHT22;27789;50.840;4.386;2023-04-25T04:29:18;8.90;99.90
39677;DHT22;27789;50.840;4.386;2023-04-25T04:31:49;8.90;99.90
39677;DHT22;27789;50.840;4.386;2023-04-25T04:34:16;8.90;99.90
39677;DHT22;27789;50.840;4.386;2023-04-25T04:36:41;8.80;99.90
39677;DHT22;27789;50.840;4.386;2023-04-25T04:39:07;8.90;99.90
39677;DHT22;27789;50.840;4.386;2023-04-25T04:41:34;8.90;99.90
39677;DHT22;27789;50.840;4.386;2023-04-25T04:44:00;8.90;99.90
39677;DHT22;27789;50.840;4.386;2023-04-25T04:46:26;9.00;99.90
39677;DHT22;27789;50.840;4.386;2023-04-25T04:48:53;9.00;99.90
39677;DHT22;27789;50.840;4.386;2023-04-25T04:51:18;9.00;99.90
39677;DHT22;27789;50.840;4.386;2023-04-25T04:53:44;9.00;99.90
39677;DHT22;27789;50.840;4.386;2023-04-25T04:56:10;9.00;99.90
39677;DHT22;27789;50.840;4.386;2023-04-25T04:58:36;9.00;99.90
39677;DHT22;27789;50.840;4.386;2023-04-25T05:01:01;8.90;99.90
39677;DHT22;27789;50.840;4.386;2023-04-25T05:03:27;8.90;99.90
39677;DHT22;27789;50.840;4.386;2023-04-25T05:05:53;8.90;99.90
39677;DHT22;27789;50.840;4.386;2023-04-25T05:08:18;8.90;99.90
39677;DHT22;27789;50.840;4.386;2023-04-25T05:10:44;8.90;99.90
39677;DHT22;27789;50.840;4.386;2023-04-25T05:13:09;8.90;99.90
39677;DHT22;27789;50.840;4.386;2023-04-25T05:15:35;8.90;99.90
39677;DHT22;27789;50.840;4.386;2023-04-25T05:18:01;8.90;99.90
39677;DHT22;27789;50.840;4.386;2023-04-25T05:20:26;8.80;99.90
39677;DHT22;27789;50.840;4.386;2023-04-25T05:22:52;8.70;99.90
39677;DHT22;27789;50.840;4.386;2023-04-25T05:25:17;8.70;99.90
39677;DHT22;27789;50.840;4.386;2023-04-25T05:27:43;8.70;99.90
39677;DHT22;27789;50.840;4.386;2023-04-25T05:30:08;8.70;99.90
39677;DHT22;27789;50.840;4.386;2023-04-25T05:32:34;8.70;99.90
39677;DHT22;27789;50.840;4.386;2023-04-25T05:35:01;8.70;99.90
39677;DHT22;27789;50.840;4.386;2023-04-25T05:37:26;8.70;99.90
39677;DHT22;27789;50.840;4.386;2023-04-25T05:39:52;8.70;99.90
39677;DHT22;27789;50.840;4.386;2023-04-25T05:42:18;8.70;99.90
39677;DHT22;27789;50.840;4.386;2023-04-25T05:44:44;8.70;99.90
39677;DHT22;27789;50.840;4.386;2023-04-25T05:47:09;8.70;99.90
39677;DHT22;27789;50.840;4.386;2023-04-25T05:49:35;8.70;99.90
39677;DHT22;27789;50.840;4.386;2023-04-25T05:52:00;8.70;99.90
39677;DHT22;27789;50.840;4.386;2023-04-25T05:54:26;8.80;99.90
39677;DHT22;27789;50.840;4.386;2023-04-25T05:56:51;8.80;99.90
39677;DHT22;27789;50.840;4.386;2023-04-25T05:59:17;8.80;99.90
39677;DHT22;27789;50.840;4.386;2023-04-25T06:01:42;8.70;99.90
39677;DHT22;27789;50.840;4.386;2023-04-25T06:04:08;8.70;99.90
39677;DHT22;27789;50.840;4.386;2023-04-25T06:06:35;8.70;99.90
39677;DHT22;27789;50.840;4.386;2023-04-25T06:09:00;8.70;99.90
39677;DHT22;27789;50.840;4.386;2023-04-25T06:11:26;8.80;99.90
39677;DHT22;27789;50.840;4.386;2023-04-25T06:13:51;8.80;99.90
39677;DHT22;27789;50.840;4.386;2023-04-25T06:16:17;8.80;99.90
39677;DHT22;27789;50.840;4.386;2023-04-25T06:18:42;8.80;99.90
39677;DHT22;27789;50.840;4.386;2023-04-25T06:21:08;8.90;99.90
39677;DHT22;27789;50.840;4.386;2023-04-25T06:23:33;8.90;99.90
39677;DHT22;27789;50.840;4.386;2023-04-25T06:25:59;9.00;99.90
39677;DHT22;27789;50.840;4.386;2023-04-25T06:28:24;9.10;99.90
39677;DHT22;27789;50.840;4.386;2023-04-25T06:30:50;9.10;99.90
39677;DHT22;27789;50.840;4.386;2023-04-25T06:33:15;9.10;99.90
39677;DHT22;27789;50.840;4.386;2023-04-25T06:35:41;9.10;99.90
39677;DHT22;27789;50.840;4.386;2023-04-25T06:38:06;9.10;99.90
39677;DHT22;27789;50.840;4.386;2023-04-25T06:40:32;9.10;99.90
39677;DHT22;27789;50.840;4.386;2023-04-25T06:42:57;9.10;99.90
39677;DHT22;27789;50.840;4.386;2023-04-25T06:45:23;9.10;99.90
39677;DHT22;27789;50.840;4.386;2023-04-25T06:47:48;9.10;99.90
39677;DHT22;27789;50.840;4.386;2023-04-25T06:50:14;9.10;99.90
39677;DHT22;27789;50.840;4.386;2023-04-25T06:52:39;9.20;99.90
39677;DHT22;27789;50.840;4.386;2023-04-25T06:55:05;9.20;99.90
39677;DHT22;27789;50.840;4.386;2023-04-25T06:57:31;9.20;99.90
39677;DHT22;27789;50.840;4.386;2023-04-25T06:59:56;9.30;99.90
39677;DHT22;27789;50.840;4.386;2023-04-25T07:02:22;9.30;99.90
39677;DHT22;27789;50.840;4.386;2023-04-25T07:04:47;8.20;99.90
39677;DHT22;27789;50.840;4.386;2023-04-25T07:07:13;9.30;99.90
39677;DHT22;27789;50.840;4.386;2023-04-25T07:09:38;9.30;99.90
39677;DHT22;27789;50.840;4.386;2023-04-25T07:12:04;9.30;99.90
39677;DHT22;27789;50.840;4.386;2023-04-25T07:14:30;9.30;99.90
39677;DHT22;27789;50.840;4.386;2023-04-25T07:16:55;9.40;99.90
39677;DHT22;27789;50.840;4.386;2023-04-25T07:19:22;9.50;99.90
39677;DHT22;27789;50.840;4.386;2023-04-25T07:21:49;9.60;99.90
39677;DHT22;27789;50.840;4.386;2023-04-25T07:24:14;9.60;99.90
39677;DHT22;27789;50.840;4.386;2023-04-25T07:26:40;9.60;99.90
39677;DHT22;27789;50.840;4.386;2023-04-25T07:29:05;9.70;99.90
39677;DHT22;27789;50.840;4.386;2023-04-25T07:31:31;9.60;99.90
39677;DHT22;27789;50.840;4.386;2023-04-25T07:33:56;9.70;99.90
39677;DHT22;27789;50.840;4.386;2023-04-25T07:36:22;9.70;99.90
39677;DHT22;27789;50.840;4.386;2023-04-25T07:38:48;9.70;99.90
39677;DHT22;27789;50.840;4.386;2023-04-25T07:41:13;9.80;99.90
39677;DHT22;27789;50.840;4.386;2023-04-25T07:43:39;9.80;99.90
39677;DHT22;27789;50.840;4.386;2023-04-25T07:46:05;9.90;99.90
39677;DHT22;27789;50.840;4.386;2023-04-25T07:48:31;10.00;99.90
39677;DHT22;27789;50.840;4.386;2023-04-25T07:50:57;10.00;99.90
39677;DHT22;27789;50.840;4.386;2023-04-25T07:53:22;10.10;99.90
39677;DHT22;27789;50.840;4.386;2023-04-25T07:55:47;10.20;99.90
39677;DHT22;27789;50.840;4.386;2023-04-25T07:58:13;10.20;99.90
39677;DHT22;27789;50.840;4.386;2023-04-25T08:00:40;10.30;99.90
39677;DHT22;27789;50.840;4.386;2023-04-25T08:03:08;10.40;99.90
39677;DHT22;27789;50.840;4.386;2023-04-25T08:05:34;10.40;99.90
39677;DHT22;27789;50.840;4.386;2023-04-25T08:08:02;10.40;99.90
39677;DHT22;27789;50.840;4.386;2023-04-25T08:10:28;10.50;99.90
39677;DHT22;27789;50.840;4.386;2023-04-25T08:12:54;10.60;99.90
39677;DHT22;27789;50.840;4.386;2023-04-25T08:15:19;10.70;99.90
39677;DHT22;27789;50.840;4.386;2023-04-25T08:17:45;10.80;99.90
39677;DHT22;27789;50.840;4.386;2023-04-25T08:20:10;10.80;99.90
39677;DHT22;27789;50.840;4.386;2023-04-25T08:22:36;10.70;99.90
39677;DHT22;27789;50.840;4.386;2023-04-25T08:25:02;10.70;99.90
39677;DHT22;27789;50.840;4.386;2023-04-25T08:27:27;10.70;99.90
39677;DHT22;27789;50.840;4.386;2023-04-25T08:29:53;10.70;99.90
39677;DHT22;27789;50.840;4.386;2023-04-25T08:32:18;10.80;99.90
39677;DHT22;27789;50.840;4.386;2023-04-25T08:34:44;10.80;99.90
39677;DHT22;27789;50.840;4.386;2023-04-25T08:37:09;10.80;99.90
39677;DHT22;27789;50.840;4.386;2023-04-25T08:39:35;10.80;99.90
39677;DHT22;27789;50.840;4.386;2023-04-25T08:42:02;10.80;99.90
39677;DHT22;27789;50.840;4.386;2023-04-25T08:44:28;10.90;99.90
39677;DHT22;27789;50.840;4.386;2023-04-25T08:46:55;10.80;99.90
39677;DHT22;27789;50.840;4.386;2023-04-25T08:49:24;11.20;99.90
39677;DHT22;27789;50.840;4.386;2023-04-25T08:51:51;11.20;99.90
39677;DHT22;27789;50.840;4.386;2023-04-25T08:54:18;11.20;99.90
39677;DHT22;27789;50.840;4.386;2023-04-25T08:56:47;11.30;99.90
39677;DHT22;27789;50.840;4.386;2023-04-25T08:59:13;11.40;99.90
39677;DHT22;27789;50.840;4.386;2023-04-25T09:01:38;11.60;99.90
39677;DHT22;27789;50.840;4.386;2023-04-25T09:04:04;11.90;99.90
39677;DHT22;27789;50.840;4.386;2023-04-25T09:06:30;12.00;99.90
39677;DHT22;27789;50.840;4.386;2023-04-25T09:11:33;11.90;99.90
39677;DHT22;27789;50.840;4.386;2023-04-25T09:16:35;11.90;99.90
39677;DHT22;27789;50.840;4.386;2023-04-25T09:19:00;11.70;99.90
39677;DHT22;27789;50.840;4.386;2023-04-25T09:21:26;11.60;99.90
39677;DHT22;27789;50.840;4.386;2023-04-25T09:23:52;11.50;99.90
39677;DHT22;27789;50.840;4.386;2023-04-25T09:26:18;11.50;99.90
39677;DHT22;27789;50.840;4.386;2023-04-25T09:28:44;11.40;99.90
39677;DHT22;27789;50.840;4.386;2023-04-25T09:31:11;11.40;99.90
39677;DHT22;27789;50.840;4.386;2023-04-25T09:33:36;11.40;99.90
39677;DHT22;27789;50.840;4.386;2023-04-25T09:36:03;11.40;99.90
39677;DHT22;27789;50.840;4.386;2023-04-25T09:38:30;11.50;99.90
39677;DHT22;27789;50.840;4.386;2023-04-25T09:40:55;11.60;99.90
39677;DHT22;27789;50.840;4.386;2023-04-25T09:43:22;11.80;99.90
39677;DHT22;27789;50.840;4.386;2023-04-25T09:45:48;11.90;99.90
39677;DHT22;27789;50.840;4.386;2023-04-25T09:48:21;11.80;99.90
39677;DHT22;27789;50.840;4.386;2023-04-25T09:53:22;11.90;99.90
39677;DHT22;27789;50.840;4.386;2023-04-25T09:55:47;12.00;99.90
39677;DHT22;27789;50.840;4.386;2023-04-25T09:58:13;12.20;99.90
39677;DHT22;27789;50.840;4.386;2023-04-25T10:00:39;12.40;99.90
39677;DHT22;27789;50.840;4.386;2023-04-25T10:03:06;12.50;99.90
39677;DHT22;27789;50.840;4.386;2023-04-25T10:05:32;12.50;99.90
39677;DHT22;27789;50.840;4.386;2023-04-25T10:08:02;12.40;99.90
39677;DHT22;27789;50.840;4.386;2023-04-25T10:10:28;12.30;99.90
39677;DHT22;27789;50.840;4.386;2023-04-25T10:13:02;12.30;99.90
39677;DHT22;27789;50.840;4.386;2023-04-25T10:15:27;12.30;99.40
39677;DHT22;27789;50.840;4.386;2023-04-25T10:17:53;12.20;99.20
39677;DHT22;27789;50.840;4.386;2023-04-25T10:20:19;12.20;98.90
39677;DHT22;27789;50.840;4.386;2023-04-25T10:22:47;12.40;99.50
39677;DHT22;27789;50.840;4.386;2023-04-25T10:25:13;12.60;98.50
39677;DHT22;27789;50.840;4.386;2023-04-25T10:27:39;12.90;98.90
39677;DHT22;27789;50.840;4.386;2023-04-25T10:30:06;13.00;98.60
39677;DHT22;27789;50.840;4.386;2023-04-25T10:32:35;13.20;98.70
39677;DHT22;27789;50.840;4.386;2023-04-25T10:37:37;13.50;98.00
39677;DHT22;27789;50.840;4.386;2023-04-25T10:40:09;13.60;97.60
39677;DHT22;27789;50.840;4.386;2023-04-25T10:42:35;13.70;97.10
39677;DHT22;27789;50.840;4.386;2023-04-25T10:45:04;13.80;97.00
39677;DHT22;27789;50.840;4.386;2023-04-25T10:47:36;13.80;96.50
39677;DHT22;27789;50.840;4.386;2023-04-25T10:50:08;13.50;96.40
39677;DHT22;27789;50.840;4.386;2023-04-25T10:52:34;13.30;96.30
39677;DHT22;27789;50.840;4.386;2023-04-25T10:54:59;13.20;96.30
39677;DHT22;27789;50.840;4.386;2023-04-25T11:02:43;12.70;97.10
39677;DHT22;27789;50.840;4.386;2023-04-25T11:05:10;12.60;97.40
39677;DHT22;27789;50.840;4.386;2023-04-25T11:07:44;12.50;96.90
39677;DHT22;27789;50.840;4.386;2023-04-25T11:10:12;12.50;98.10
39677;DHT22;27789;50.840;4.386;2023-04-25T11:12:39;12.50;99.20
39677;DHT22;27789;50.840;4.386;2023-04-25T11:15:05;12.40;99.90
39677;DHT22;27789;50.840;4.386;2023-04-25T11:17:31;12.30;99.90
39677;DHT22;27789;50.840;4.386;2023-04-25T11:19:56;12.10;99.90
39677;DHT22;27789;50.840;4.386;2023-04-25T11:22:22;12.30;99.90
39677;DHT22;27789;50.840;4.386;2023-04-25T11:24:47;13.40;99.50
39677;DHT22;27789;50.840;4.386;2023-04-25T11:27:13;14.40;98.20
39677;DHT22;27789;50.840;4.386;2023-04-25T11:29:39;14.00;97.50
39677;DHT22;27789;50.840;4.386;2023-04-25T11:32:05;13.70;98.20
39677;DHT22;27789;50.840;4.386;2023-04-25T11:34:31;13.70;98.30
39677;DHT22;27789;50.840;4.386;2023-04-25T11:36:58;14.10;98.20
39677;DHT22;27789;50.840;4.386;2023-04-25T11:39:24;14.50;98.00
39677;DHT22;27789;50.840;4.386;2023-04-25T11:41:50;15.50;97.20
39677;DHT22;27789;50.840;4.386;2023-04-25T11:44:16;16.20;96.50
39677;DHT22;27789;50.840;4.386;2023-04-25T11:46:42;16.10;96.40
39677;DHT22;27789;50.840;4.386;2023-04-25T11:49:07;15.60;96.50
39677;DHT22;27789;50.840;4.386;2023-04-25T11:51:42;15.20;96.00
39677;DHT22;27789;50.840;4.386;2023-04-25T11:54:08;15.10;95.40
39677;DHT22;27789;50.840;4.386;2023-04-25T11:56:34;14.90;95.50
39677;DHT22;27789;50.840;4.386;2023-04-25T11:59:00;14.50;95.50
39677;DHT22;27789;50.840;4.386;2023-04-25T12:01:29;14.80;95.00
39677;DHT22;27789;50.840;4.386;2023-04-25T12:03:58;15.50;94.50
39677;DHT22;27789;50.840;4.386;2023-04-25T12:06:34;16.00;94.20
39677;DHT22;27789;50.840;4.386;2023-04-25T12:09:04;17.40;93.90
39677;DHT22;27789;50.840;4.386;2023-04-25T12:11:30;18.40;92.40
39677;DHT22;27789;50.840;4.386;2023-04-25T12:14:01;18.10;92.10
39677;DHT22;27789;50.840;4.386;2023-04-25T12:16:27;17.20;92.90
39677;DHT22;27789;50.840;4.386;2023-04-25T12:18:52;16.20;93.50
39677;DHT22;27789;50.840;4.386;2023-04-25T12:21:20;15.60;94.50
39677;DHT22;27789;50.840;4.386;2023-04-25T12:23:45;15.30;95.20
39677;DHT22;27789;50.840;4.386;2023-04-25T12:26:11;15.50;95.00
39677;DHT22;27789;50.840;4.386;2023-04-25T12:28:39;15.20;93.50
39677;DHT22;27789;50.840;4.386;2023-04-25T12:31:06;14.70;94.10
39677;DHT22;27789;50.840;4.386;2023-04-25T12:33:32;14.30;94.40
39677;DHT22;27789;50.840;4.386;2023-04-25T12:35:58;13.90;95.00
39677;DHT22;27789;50.840;4.386;2023-04-25T12:40:49;13.50;95.40
39677;DHT22;27789;50.840;4.386;2023-04-25T12:43:15;13.70;95.00
39677;DHT22;27789;50.840;4.386;2023-04-25T12:45:40;14.00;94.10
39677;DHT22;27789;50.840;4.386;2023-04-25T12:48:06;15.50;93.40
39677;DHT22;27789;50.840;4.386;2023-04-25T12:50:31;17.20;91.60
39677;DHT22;27789;50.840;4.386;2023-04-25T12:52:57;18.20;91.30
39677;DHT22;27789;50.840;4.386;2023-04-25T12:55:22;18.60;90.70
39677;DHT22;27789;50.840;4.386;2023-04-25T12:57:48;18.50;90.60
39677;DHT22;27789;50.840;4.386;2023-04-25T13:00:13;18.10;91.00
39677;DHT22;27789;50.840;4.386;2023-04-25T13:02:40;17.40;91.80
39677;DHT22;27789;50.840;4.386;2023-04-25T13:05:06;17.00;91.80
39677;DHT22;27789;50.840;4.386;2023-04-25T13:07:32;16.30;92.60
39677;DHT22;27789;50.840;4.386;2023-04-25T13:09:57;15.80;93.30
39677;DHT22;27789;50.840;4.386;2023-04-25T13:12:23;15.30;94.20
39677;DHT22;27789;50.840;4.386;2023-04-25T13:14:48;14.80;94.60
39677;DHT22;27789;50.840;4.386;2023-04-25T13:17:17;14.40;94.50
39677;DHT22;27789;50.840;4.386;2023-04-25T13:19:42;14.20;94.60
39677;DHT22;27789;50.840;4.386;2023-04-25T13:22:08;14.30;94.50
39677;DHT22;27789;50.840;4.386;2023-04-25T13:24:33;14.90;94.40
39677;DHT22;27789;50.840;4.386;2023-04-25T13:26:59;15.50;94.10
39677;DHT22;27789;50.840;4.386;2023-04-25T13:29:24;16.40;93.40
39677;DHT22;27789;50.840;4.386;2023-04-25T13:31:50;17.20;93.00
39677;DHT22;27789;50.840;4.386;2023-04-25T13:34:15;17.90;92.20
39677;DHT22;27789;50.840;4.386;2023-04-25T13:36:41;18.50;91.90
39677;DHT22;27789;50.840;4.386;2023-04-25T13:39:06;19.10;90.40
39677;DHT22;27789;50.840;4.386;2023-04-25T13:41:32;19.60;89.30
39677;DHT22;27789;50.840;4.386;2023-04-25T13:43:57;19.70;88.60
39677;DHT22;27789;50.840;4.386;2023-04-25T13:46:23;19.90;89.30
39677;DHT22;27789;50.840;4.386;2023-04-25T13:48:48;19.50;89.50
39677;DHT22;27789;50.840;4.386;2023-04-25T13:51:17;19.40;89.50
39677;DHT22;27789;50.840;4.386;2023-04-25T13:53:43;19.30;88.50
39677;DHT22;27789;50.840;4.386;2023-04-25T13:56:09;18.50;89.00
39677;DHT22;27789;50.840;4.386;2023-04-25T13:58:36;17.70;90.30
39677;DHT22;27789;50.840;4.386;2023-04-25T14:01:02;17.00;91.40
39677;DHT22;27789;50.840;4.386;2023-04-25T14:03:28;16.40;92.20
39677;DHT22;27789;50.840;4.386;2023-04-25T14:05:54;15.90;92.70
39677;DHT22;27789;50.840;4.386;2023-04-25T14:08:20;15.50;93.10
39677;DHT22;27789;50.840;4.386;2023-04-25T14:10:46;15.40;93.30
39677;DHT22;27789;50.840;4.386;2023-04-25T14:13:11;15.30;93.30
39677;DHT22;27789;50.840;4.386;2023-04-25T14:15:36;15.30;93.70
39677;DHT22;27789;50.840;4.386;2023-04-25T14:18:02;15.20;93.00
39677;DHT22;27789;50.840;4.386;2023-04-25T14:20:28;15.10;92.80
39677;DHT22;27789;50.840;4.386;2023-04-25T14:22:53;15.20;93.10
39677;DHT22;27789;50.840;4.386;2023-04-25T14:25:21;15.20;93.10
39677;DHT22;27789;50.840;4.386;2023-04-25T14:27:47;15.00;92.60
39677;DHT22;27789;50.840;4.386;2023-04-25T14:30:15;14.90;93.30
39677;DHT22;27789;50.840;4.386;2023-04-25T14:32:41;14.90;92.60
39677;DHT22;27789;50.840;4.386;2023-04-25T14:35:06;14.70;92.60
39677;DHT22;27789;50.840;4.386;2023-04-25T14:37:32;14.70;92.80
39677;DHT22;27789;50.840;4.386;2023-04-25T14:39:58;14.80;92.40
39677;DHT22;27789;50.840;4.386;2023-04-25T14:42:23;14.90;92.10
39677;DHT22;27789;50.840;4.386;2023-04-25T14:44:49;15.00;92.70
39677;DHT22;27789;50.840;4.386;2023-04-25T14:47:15;15.10;91.60
39677;DHT22;27789;50.840;4.386;2023-04-25T14:49:41;15.20;91.60
39677;DHT22;27789;50.840;4.386;2023-04-25T14:52:06;15.30;91.50
39677;DHT22;27789;50.840;4.386;2023-04-25T14:54:32;15.20;92.00
39677;DHT22;27789;50.840;4.386;2023-04-25T14:56:58;15.20;92.90
39677;DHT22;27789;50.840;4.386;2023-04-25T14:59:23;15.30;92.50
39677;DHT22;27789;50.840;4.386;2023-04-25T15:01:49;15.50;92.90
39677;DHT22;27789;50.840;4.386;2023-04-25T15:04:15;15.40;92.20
39677;DHT22;27789;50.840;4.386;2023-04-25T15:06:42;15.40;92.00
39677;DHT22;27789;50.840;4.386;2023-04-25T15:09:08;15.30;91.80
39677;DHT22;27789;50.840;4.386;2023-04-25T15:11:35;15.20;91.70
39677;DHT22;27789;50.840;4.386;2023-04-25T15:14:00;15.20;92.40
39677;DHT22;27789;50.840;4.386;2023-04-25T15:16:26;15.20;92.80
39677;DHT22;27789;50.840;4.386;2023-04-25T15:18:51;15.30;92.70
39677;DHT22;27789;50.840;4.386;2023-04-25T15:21:16;15.40;92.80
39677;DHT22;27789;50.840;4.386;2023-04-25T15:23:42;15.40;92.50
39677;DHT22;27789;50.840;4.386;2023-04-25T15:26:08;15.60;92.40
39677;DHT22;27789;50.840;4.386;2023-04-25T15:28:33;15.60;92.20
39677;DHT22;27789;50.840;4.386;2023-04-25T15:30:59;15.80;92.40
39677;DHT22;27789;50.840;4.386;2023-04-25T15:33:25;15.70;91.70
39677;DHT22;27789;50.840;4.386;2023-04-25T15:35:50;15.40;91.90
39677;DHT22;27789;50.840;4.386;2023-04-25T15:38:16;15.30;92.00
39677;DHT22;27789;50.840;4.386;2023-04-25T15:40:41;15.10;91.90
39677;DHT22;27789;50.840;4.386;2023-04-25T15:43:07;15.10;92.10
39677;DHT22;27789;50.840;4.386;2023-04-25T15:45:35;15.10;91.80
39677;DHT22;27789;50.840;4.386;2023-04-25T15:48:02;15.00;91.60